Orr, North Dakota
Current Conditions -  °F | °C
As of 6:13 PM on Tuesday 25 Nov 2014 (Local Time) from KRDR Reporting Station
Light Snow Light Snow  
Wind Chill:   Ceiling: 900
Heat Index: 19°   Visibility: 5mi
Dew Point: 14°   Wind: 10mph
Humidity: 80%   Direction: 60°ENE
Pressure: 29.98"   Gusts: NA
Location:  48.1078°N, 97.7089°W
Report Text: KRDR 260013Z AUTO 06009KT 5SM R35/4500FT -SN OVC009 M07/M10 A2998 RMK AO2
Loading
Personal Weather Stations






























Interactive Weather Map New forecast layout! Learn more

10-Day Weather Forecast

Advertisements
Track Severe Weather on mobile